sensor_id;sensor_type;location;lat;lon;timestamp;P1;durP1;ratioP1;P2;durP2;ratioP2
5604;SDS011;9297;47.258;11.362;2024-03-23T00:54:59;3.50;;;1.80;;
5604;SDS011;9297;47.258;11.362;2024-03-23T00:57:40;1.57;;;1.47;;
5604;SDS011;9297;47.258;11.362;2024-03-23T01:00:07;1.50;;;1.47;;
5604;SDS011;9297;47.258;11.362;2024-03-23T01:02:33;1.30;;;1.30;;
5604;SDS011;9297;47.258;11.362;2024-03-23T08:12:20;1.80;;;1.80;;
5604;SDS011;9297;47.258;11.362;2024-03-23T08:14:47;2.10;;;2.00;;
5604;SDS011;9297;47.258;11.362;2024-03-23T08:17:14;2.77;;;2.13;;
5604;SDS011;9297;47.258;11.362;2024-03-23T08:19:40;3.73;;;3.00;;
5604;SDS011;9297;47.258;11.362;2024-03-23T08:22:06;3.03;;;2.27;;
5604;SDS011;9297;47.258;11.362;2024-03-23T08:24:32;2.40;;;1.90;;
5604;SDS011;9297;47.258;11.362;2024-03-23T08:26:59;2.27;;;2.17;;
5604;SDS011;9297;47.258;11.362;2024-03-23T08:29:27;1.67;;;1.67;;
5604;SDS011;9297;47.258;11.362;2024-03-23T08:31:53;2.37;;;2.20;;
5604;SDS011;9297;47.258;11.362;2024-03-23T08:34:19;1.83;;;1.73;;
5604;SDS011;9297;47.258;11.362;2024-03-23T08:36:45;2.10;;;2.00;;
5604;SDS011;9297;47.258;11.362;2024-03-23T08:39:11;2.30;;;2.20;;
5604;SDS011;9297;47.258;11.362;2024-03-23T08:41:37;3.17;;;2.13;;
5604;SDS011;9297;47.258;11.362;2024-03-23T08:44:03;1.70;;;1.60;;
5604;SDS011;9297;47.258;11.362;2024-03-23T08:46:30;1.80;;;1.70;;
5604;SDS011;9297;47.258;11.362;2024-03-23T08:48:56;2.47;;;2.10;;
5604;SDS011;9297;47.258;11.362;2024-03-23T08:51:22;2.17;;;1.97;;
5604;SDS011;9297;47.258;11.362;2024-03-23T08:53:48;2.07;;;1.97;;
5604;SDS011;9297;47.258;11.362;2024-03-23T08:56:14;1.53;;;1.43;;
5604;SDS011;9297;47.258;11.362;2024-03-23T08:58:40;4.37;;;1.80;;
5604;SDS011;9297;47.258;11.362;2024-03-23T09:01:09;1.97;;;1.87;;
5604;SDS011;9297;47.258;11.362;2024-03-23T09:03:37;1.27;;;1.27;;
5604;SDS011;9297;47.258;11.362;2024-03-23T09:06:06;1.63;;;1.60;;
5604;SDS011;9297;47.258;11.362;2024-03-23T09:08:32;1.60;;;1.50;;
5604;SDS011;9297;47.258;11.362;2024-03-23T09:11:00;1.47;;;1.37;;
5604;SDS011;9297;47.258;11.362;2024-03-23T09:13:29;1.57;;;1.47;;
5604;SDS011;9297;47.258;11.362;2024-03-23T09:15:55;1.50;;;1.50;;
5604;SDS011;9297;47.258;11.362;2024-03-23T09:18:21;2.93;;;1.50;;
5604;SDS011;9297;47.258;11.362;2024-03-23T09:20:48;1.80;;;1.43;;
5604;SDS011;9297;47.258;11.362;2024-03-23T09:23:14;1.57;;;1.47;;
5604;SDS011;9297;47.258;11.362;2024-03-23T09:25:40;1.70;;;1.70;;
5604;SDS011;9297;47.258;11.362;2024-03-23T09:28:06;1.20;;;1.20;;
5604;SDS011;9297;47.258;11.362;2024-03-23T09:30:33;1.67;;;1.40;;
5604;SDS011;9297;47.258;11.362;2024-03-23T09:32:59;1.80;;;1.70;;
5604;SDS011;9297;47.258;11.362;2024-03-23T09:35:25;1.53;;;1.43;;
5604;SDS011;9297;47.258;11.362;2024-03-23T09:37:52;1.93;;;1.67;;
5604;SDS011;9297;47.258;11.362;2024-03-23T09:40:18;1.83;;;1.73;;
5604;SDS011;9297;47.258;11.362;2024-03-23T09:42:49;1.63;;;1.63;;
5604;SDS011;9297;47.258;11.362;2024-03-23T09:45:16;1.20;;;1.20;;
5604;SDS011;9297;47.258;11.362;2024-03-23T09:47:46;1.63;;;1.53;;
5604;SDS011;9297;47.258;11.362;2024-03-23T09:50:12;1.40;;;1.40;;
5604;SDS011;9297;47.258;11.362;2024-03-23T09:52:38;1.60;;;1.37;;
5604;SDS011;9297;47.258;11.362;2024-03-23T09:55:06;1.27;;;1.27;;
5604;SDS011;9297;47.258;11.362;2024-03-23T09:57:33;1.50;;;1.50;;
5604;SDS011;9297;47.258;11.362;2024-03-23T09:59:59;1.37;;;1.37;;
5604;SDS011;9297;47.258;11.362;2024-03-23T10:02:25;1.17;;;1.17;;
5604;SDS011;9297;47.258;11.362;2024-03-23T10:04:51;1.20;;;1.20;;
5604;SDS011;9297;47.258;11.362;2024-03-23T10:07:18;1.20;;;1.20;;
5604;SDS011;9297;47.258;11.362;2024-03-23T10:09:45;1.37;;;1.33;;
5604;SDS011;9297;47.258;11.362;2024-03-23T10:12:13;1.33;;;1.33;;
5604;SDS011;9297;47.258;11.362;2024-03-23T10:14:41;2.60;;;1.70;;
5604;SDS011;9297;47.258;11.362;2024-03-23T10:17:15;1.60;;;1.60;;
5604;SDS011;9297;47.258;11.362;2024-03-23T10:19:41;2.20;;;1.40;;
5604;SDS011;9297;47.258;11.362;2024-03-23T10:22:08;3.83;;;1.97;;
5604;SDS011;9297;47.258;11.362;2024-03-23T10:24:34;2.20;;;1.67;;
5604;SDS011;9297;47.258;11.362;2024-03-23T10:27:00;1.43;;;1.33;;
5604;SDS011;9297;47.258;11.362;2024-03-23T10:29:28;1.50;;;1.50;;
5604;SDS011;9297;47.258;11.362;2024-03-23T10:31:54;16.50;;;1.93;;
5604;SDS011;9297;47.258;11.362;2024-03-23T10:34:32;1.30;;;1.27;;
5604;SDS011;9297;47.258;11.362;2024-03-23T10:36:58;1.30;;;1.30;;
5604;SDS011;9297;47.258;11.362;2024-03-23T10:39:26;1.30;;;1.30;;
5604;SDS011;9297;47.258;11.362;2024-03-23T10:41:52;1.80;;;1.43;;
5604;SDS011;9297;47.258;11.362;2024-03-23T10:44:21;1.73;;;1.63;;
5604;SDS011;9297;47.258;11.362;2024-03-23T10:46:49;2.30;;;2.20;;
5604;SDS011;9297;47.258;11.362;2024-03-23T10:49:16;3.27;;;1.50;;
5604;SDS011;9297;47.258;11.362;2024-03-23T10:51:42;2.20;;;1.97;;
5604;SDS011;9297;47.258;11.362;2024-03-23T10:54:08;1.60;;;1.50;;
5604;SDS011;9297;47.258;11.362;2024-03-23T10:56:35;4.30;;;1.90;;
5604;SDS011;9297;47.258;11.362;2024-03-23T10:59:37;1.70;;;1.60;;
5604;SDS011;9297;47.258;11.362;2024-03-23T11:02:06;2.40;;;2.20;;
5604;SDS011;9297;47.258;11.362;2024-03-23T11:04:43;2.10;;;2.00;;
5604;SDS011;9297;47.258;11.362;2024-03-23T11:09:56;1.70;;;1.60;;
5604;SDS011;9297;47.258;11.362;2024-03-23T11:12:26;6.30;;;1.70;;
5604;SDS011;9297;47.258;11.362;2024-03-23T11:14:53;1.90;;;1.80;;
5604;SDS011;9297;47.258;11.362;2024-03-23T11:17:22;1.90;;;1.73;;
5604;SDS011;9297;47.258;11.362;2024-03-23T11:19:52;3.40;;;2.33;;
5604;SDS011;9297;47.258;11.362;2024-03-23T11:25:03;2.70;;;1.37;;
5604;SDS011;9297;47.258;11.362;2024-03-23T11:27:37;1.33;;;1.33;;
5604;SDS011;9297;47.258;11.362;2024-03-23T11:30:10;1.30;;;1.30;;
5604;SDS011;9297;47.258;11.362;2024-03-23T11:32:42;0.90;;;0.90;;
5604;SDS011;9297;47.258;11.362;2024-03-23T11:35:08;0.70;;;0.70;;
5604;SDS011;9297;47.258;11.362;2024-03-23T11:37:34;1.03;;;1.03;;
5604;SDS011;9297;47.258;11.362;2024-03-23T11:40:14;1.33;;;0.63;;
5604;SDS011;9297;47.258;11.362;2024-03-23T11:42:42;2.07;;;1.00;;
5604;SDS011;9297;47.258;11.362;2024-03-23T11:45:09;0.87;;;0.87;;
5604;SDS011;9297;47.258;11.362;2024-03-23T11:47:35;1.37;;;1.37;;
5604;SDS011;9297;47.258;11.362;2024-03-23T11:50:03;1.40;;;1.30;;
5604;SDS011;9297;47.258;11.362;2024-03-23T11:52:29;0.90;;;0.90;;
5604;SDS011;9297;47.258;11.362;2024-03-23T11:55:02;0.97;;;0.97;;
5604;SDS011;9297;47.258;11.362;2024-03-23T11:57:29;0.90;;;0.90;;
5604;SDS011;9297;47.258;11.362;2024-03-23T11:59:55;1.20;;;1.20;;
5604;SDS011;9297;47.258;11.362;2024-03-23T12:02:21;0.80;;;0.80;;
5604;SDS011;9297;47.258;11.362;2024-03-23T12:04:47;1.10;;;1.10;;
5604;SDS011;9297;47.258;11.362;2024-03-23T12:07:16;0.70;;;0.70;;
5604;SDS011;9297;47.258;11.362;2024-03-23T12:09:42;2.33;;;1.13;;
5604;SDS011;9297;47.258;11.362;2024-03-23T12:12:10;0.90;;;0.90;;
5604;SDS011;9297;47.258;11.362;2024-03-23T12:14:38;1.23;;;0.93;;
5604;SDS011;9297;47.258;11.362;2024-03-23T12:17:14;1.27;;;1.20;;
5604;SDS011;9297;47.258;11.362;2024-03-23T12:19:41;0.93;;;0.93;;
5604;SDS011;9297;47.258;11.362;2024-03-23T12:24:47;0.97;;;0.97;;
5604;SDS011;9297;47.258;11.362;2024-03-23T12:27:13;1.23;;;1.00;;
5604;SDS011;9297;47.258;11.362;2024-03-23T12:29:41;1.20;;;1.20;;
5604;SDS011;9297;47.258;11.362;2024-03-23T12:34:53;1.10;;;1.10;;
5604;SDS011;9297;47.258;11.362;2024-03-23T14:58:21;2.10;;;1.10;;
5604;SDS011;9297;47.258;11.362;2024-03-23T15:00:52;1.13;;;1.13;;
5604;SDS011;9297;47.258;11.362;2024-03-23T15:07:05;1.43;;;1.43;;
5604;SDS011;9297;47.258;11.362;2024-03-23T15:09:31;1.47;;;1.47;;
5604;SDS011;9297;47.258;11.362;2024-03-23T16:01:24;1.60;;;1.50;;
5604;SDS011;9297;47.258;11.362;2024-03-23T16:03:54;1.50;;;1.50;;
5604;SDS011;9297;47.258;11.362;2024-03-23T16:06:35;1.23;;;1.20;;
5604;SDS011;9297;47.258;11.362;2024-03-23T16:09:01;1.33;;;1.33;;
5604;SDS011;9297;47.258;11.362;2024-03-23T16:11:34;1.33;;;1.33;;
5604;SDS011;9297;47.258;11.362;2024-03-23T16:14:06;1.43;;;1.33;;
5604;SDS011;9297;47.258;11.362;2024-03-23T16:17:09;1.23;;;1.23;;
5604;SDS011;9297;47.258;11.362;2024-03-23T16:19:39;1.17;;;1.17;;
5604;SDS011;9297;47.258;11.362;2024-03-23T16:22:05;1.73;;;1.63;;
5604;SDS011;9297;47.258;11.362;2024-03-23T16:24:32;2.37;;;1.60;;
5604;SDS011;9297;47.258;11.362;2024-03-23T16:26:58;1.60;;;1.50;;
5604;SDS011;9297;47.258;11.362;2024-03-23T16:29:25;1.70;;;1.70;;
5604;SDS011;9297;47.258;11.362;2024-03-23T16:31:54;1.87;;;1.77;;
5604;SDS011;9297;47.258;11.362;2024-03-23T16:34:25;1.43;;;1.33;;
5604;SDS011;9297;47.258;11.362;2024-03-23T16:36:52;1.40;;;1.40;;
5604;SDS011;9297;47.258;11.362;2024-03-23T16:39:18;1.23;;;1.23;;
5604;SDS011;9297;47.258;11.362;2024-03-23T16:41:46;1.40;;;1.40;;
5604;SDS011;9297;47.258;11.362;2024-03-23T16:44:12;1.77;;;1.67;;
5604;SDS011;9297;47.258;11.362;2024-03-23T16:46:39;1.83;;;1.73;;
5604;SDS011;9297;47.258;11.362;2024-03-23T16:49:05;1.43;;;1.10;;
5604;SDS011;9297;47.258;11.362;2024-03-23T16:51:44;1.20;;;1.20;;
5604;SDS011;9297;47.258;11.362;2024-03-23T16:54:24;1.43;;;1.43;;
5604;SDS011;9297;47.258;11.362;2024-03-23T16:56:51;1.97;;;1.87;;
5604;SDS011;9297;47.258;11.362;2024-03-23T16:59:32;1.83;;;1.73;;
5604;SDS011;9297;47.258;11.362;2024-03-23T17:02:02;2.27;;;2.07;;
5604;SDS011;9297;47.258;11.362;2024-03-23T17:04:28;2.07;;;1.80;;
5604;SDS011;9297;47.258;11.362;2024-03-23T17:06:56;1.27;;;1.27;;
5604;SDS011;9297;47.258;11.362;2024-03-23T17:09:22;1.77;;;1.77;;
5604;SDS011;9297;47.258;11.362;2024-03-23T17:11:48;1.90;;;1.80;;
5604;SDS011;9297;47.258;11.362;2024-03-23T17:14:14;2.23;;;2.13;;
5604;SDS011;9297;47.258;11.362;2024-03-23T17:16:40;2.00;;;1.90;;
5604;SDS011;9297;47.258;11.362;2024-03-23T17:19:07;2.20;;;1.90;;
5604;SDS011;9297;47.258;11.362;2024-03-23T17:21:34;2.37;;;2.27;;
5604;SDS011;9297;47.258;11.362;2024-03-23T17:24:04;2.20;;;1.93;;
5604;SDS011;9297;47.258;11.362;2024-03-23T17:26:31;1.90;;;1.80;;
5604;SDS011;9297;47.258;11.362;2024-03-23T17:29:01;1.67;;;1.47;;
5604;SDS011;9297;47.258;11.362;2024-03-23T17:31:27;2.17;;;2.07;;
5604;SDS011;9297;47.258;11.362;2024-03-23T17:33:55;3.20;;;1.80;;
5604;SDS011;9297;47.258;11.362;2024-03-23T17:36:21;2.07;;;1.97;;
5604;SDS011;9297;47.258;11.362;2024-03-23T17:38:49;2.43;;;2.23;;
5604;SDS011;9297;47.258;11.362;2024-03-23T17:41:16;2.20;;;2.10;;
5604;SDS011;9297;47.258;11.362;2024-03-23T17:43:44;2.87;;;2.67;;
5604;SDS011;9297;47.258;11.362;2024-03-23T17:46:10;2.40;;;2.30;;
5604;SDS011;9297;47.258;11.362;2024-03-23T17:48:36;2.50;;;2.40;;
5604;SDS011;9297;47.258;11.362;2024-03-23T17:51:03;2.37;;;2.27;;
5604;SDS011;9297;47.258;11.362;2024-03-23T17:53:29;2.03;;;1.93;;
5604;SDS011;9297;47.258;11.362;2024-03-23T17:55:55;3.53;;;2.50;;
5604;SDS011;9297;47.258;11.362;2024-03-23T17:58:26;3.13;;;2.93;;
5604;SDS011;9297;47.258;11.362;2024-03-23T18:00:52;2.70;;;2.53;;
5604;SDS011;9297;47.258;11.362;2024-03-23T18:03:20;2.43;;;2.30;;
5604;SDS011;9297;47.258;11.362;2024-03-23T18:05:47;2.00;;;1.90;;
5604;SDS011;9297;47.258;11.362;2024-03-23T18:08:13;2.23;;;2.13;;
5604;SDS011;9297;47.258;11.362;2024-03-23T18:10:40;2.77;;;2.57;;
5604;SDS011;9297;47.258;11.362;2024-03-23T18:13:06;1.93;;;1.83;;
5604;SDS011;9297;47.258;11.362;2024-03-23T18:15:34;2.40;;;2.30;;
5604;SDS011;9297;47.258;11.362;2024-03-23T18:18:06;2.07;;;1.97;;
5604;SDS011;9297;47.258;11.362;2024-03-23T18:21:02;2.47;;;2.37;;
5604;SDS011;9297;47.258;11.362;2024-03-23T18:23:37;2.63;;;2.43;;
5604;SDS011;9297;47.258;11.362;2024-03-23T18:26:21;3.40;;;2.20;;
5604;SDS011;9297;47.258;11.362;2024-03-23T18:29:15;2.80;;;2.70;;
5604;SDS011;9297;47.258;11.362;2024-03-23T18:35:18;4.93;;;2.77;;
5604;SDS011;9297;47.258;11.362;2024-03-23T18:37:45;2.93;;;2.77;;
5604;SDS011;9297;47.258;11.362;2024-03-23T18:40:15;2.97;;;2.33;;
5604;SDS011;9297;47.258;11.362;2024-03-23T18:43:24;2.90;;;2.70;;
5604;SDS011;9297;47.258;11.362;2024-03-23T18:46:06;2.80;;;2.60;;
5604;SDS011;9297;47.258;11.362;2024-03-23T18:48:38;5.60;;;3.73;;
5604;SDS011;9297;47.258;11.362;2024-03-23T19:02:33;4.33;;;2.93;;
5604;SDS011;9297;47.258;11.362;2024-03-23T19:04:59;2.70;;;2.50;;
5604;SDS011;9297;47.258;11.362;2024-03-23T19:07:25;2.47;;;2.33;;
5604;SDS011;9297;47.258;11.362;2024-03-23T19:09:51;3.43;;;3.13;;
5604;SDS011;9297;47.258;11.362;2024-03-23T19:12:32;2.90;;;2.63;;
5604;SDS011;9297;47.258;11.362;2024-03-23T19:15:14;2.57;;;2.37;;
5604;SDS011;9297;47.258;11.362;2024-03-23T19:17:42;2.27;;;2.10;;
5604;SDS011;9297;47.258;11.362;2024-03-23T19:20:09;2.67;;;2.57;;
5604;SDS011;9297;47.258;11.362;2024-03-23T19:22:36;2.70;;;2.50;;
5604;SDS011;9297;47.258;11.362;2024-03-23T19:25:02;2.40;;;2.20;;
5604;SDS011;9297;47.258;11.362;2024-03-23T19:27:28;2.20;;;2.10;;
5604;SDS011;9297;47.258;11.362;2024-03-23T19:29:55;2.53;;;2.33;;
5604;SDS011;9297;47.258;11.362;2024-03-23T19:32:21;3.03;;;2.37;;
5604;SDS011;9297;47.258;11.362;2024-03-23T19:34:49;3.07;;;2.77;;
5604;SDS011;9297;47.258;11.362;2024-03-23T19:37:15;2.80;;;2.70;;
5604;SDS011;9297;47.258;11.362;2024-03-23T19:39:43;2.80;;;2.60;;
5604;SDS011;9297;47.258;11.362;2024-03-23T19:42:09;2.80;;;2.60;;
5604;SDS011;9297;47.258;11.362;2024-03-23T19:44:36;3.53;;;3.33;;
5604;SDS011;9297;47.258;11.362;2024-03-23T21:01:14;3.80;;;2.10;;
5604;SDS011;9297;47.258;11.362;2024-03-23T21:03:54;2.27;;;2.17;;
5604;SDS011;9297;47.258;11.362;2024-03-23T21:06:44;2.77;;;2.60;;
5604;SDS011;9297;47.258;11.362;2024-03-23T21:09:12;5.47;;;3.77;;
5604;SDS011;9297;47.258;11.362;2024-03-23T21:11:42;2.70;;;2.30;;
5604;SDS011;9297;47.258;11.362;2024-03-23T21:14:09;2.93;;;2.83;;
5604;SDS011;9297;47.258;11.362;2024-03-23T21:19:42;3.60;;;3.30;;
5604;SDS011;9297;47.258;11.362;2024-03-23T21:22:17;3.20;;;3.00;;
5604;SDS011;9297;47.258;11.362;2024-03-23T21:24:59;2.27;;;2.17;;
5604;SDS011;9297;47.258;11.362;2024-03-23T21:28:06;2.40;;;2.30;;
5604;SDS011;9297;47.258;11.362;2024-03-23T21:30:38;2.03;;;1.93;;
5604;SDS011;9297;47.258;11.362;2024-03-23T21:33:22;2.73;;;2.53;;
5604;SDS011;9297;47.258;11.362;2024-03-23T21:35:56;2.77;;;2.57;;
5604;SDS011;9297;47.258;11.362;2024-03-23T21:38:26;2.90;;;2.70;;
5604;SDS011;9297;47.258;11.362;2024-03-23T21:41:01;3.13;;;2.73;;
5604;SDS011;9297;47.258;11.362;2024-03-23T21:43:51;2.47;;;2.37;;
5604;SDS011;9297;47.258;11.362;2024-03-23T21:50:20;2.50;;;2.40;;
5604;SDS011;9297;47.258;11.362;2024-03-23T21:52:51;3.20;;;2.60;;
5604;SDS011;9297;47.258;11.362;2024-03-23T21:58:34;3.40;;;3.07;;
5604;SDS011;9297;47.258;11.362;2024-03-23T22:01:11;3.40;;;3.10;;
5604;SDS011;9297;47.258;11.362;2024-03-23T22:03:42;2.50;;;2.30;;
5604;SDS011;9297;47.258;11.362;2024-03-23T22:06:11;3.50;;;3.23;;
5604;SDS011;9297;47.258;11.362;2024-03-23T22:08:38;3.30;;;3.00;;
5604;SDS011;9297;47.258;11.362;2024-03-23T22:11:04;2.77;;;2.60;;
5604;SDS011;9297;47.258;11.362;2024-03-23T22:13:31;4.30;;;2.43;;
5604;SDS011;9297;47.258;11.362;2024-03-23T22:15:58;2.30;;;2.20;;
5604;SDS011;9297;47.258;11.362;2024-03-23T22:18:25;2.37;;;2.17;;
5604;SDS011;9297;47.258;11.362;2024-03-23T22:20:55;2.63;;;2.53;;
5604;SDS011;9297;47.258;11.362;2024-03-23T22:23:23;2.10;;;2.07;;
5604;SDS011;9297;47.258;11.362;2024-03-23T22:25:51;3.07;;;2.00;;
5604;SDS011;9297;47.258;11.362;2024-03-23T22:28:28;2.43;;;1.90;;
5604;SDS011;9297;47.258;11.362;2024-03-23T22:30:55;2.83;;;2.30;;
5604;SDS011;9297;47.258;11.362;2024-03-23T22:33:22;3.33;;;2.40;;
5604;SDS011;9297;47.258;11.362;2024-03-23T22:46:36;1.97;;;1.93;;
5604;SDS011;9297;47.258;11.362;2024-03-23T22:50:15;2.13;;;1.93;;
5604;SDS011;9297;47.258;11.362;2024-03-23T22:52:42;2.60;;;2.40;;
5604;SDS011;9297;47.258;11.362;2024-03-23T22:55:08;2.83;;;2.23;;
5604;SDS011;9297;47.258;11.362;2024-03-23T22:57:34;2.30;;;2.20;;
5604;SDS011;9297;47.258;11.362;2024-03-23T23:00:01;5.83;;;1.80;;
5604;SDS011;9297;47.258;11.362;2024-03-23T23:02:29;3.30;;;3.00;;
5604;SDS011;9297;47.258;11.362;2024-03-23T23:04:56;2.60;;;2.40;;
5604;SDS011;9297;47.258;11.362;2024-03-23T23:07:23;2.53;;;2.43;;
5604;SDS011;9297;47.258;11.362;2024-03-23T23:10:18;2.20;;;2.10;;
5604;SDS011;9297;47.258;11.362;2024-03-23T23:14:00;2.73;;;2.53;;
5604;SDS011;9297;47.258;11.362;2024-03-23T23:30:37;2.70;;;2.60;;
5604;SDS011;9297;47.258;11.362;2024-03-23T23:33:19;2.57;;;2.20;;
5604;SDS011;9297;47.258;11.362;2024-03-23T23:43:11;2.53;;;2.43;;
5604;SDS011;9297;47.258;11.362;2024-03-23T23:49:47;2.43;;;2.33;;
5604;SDS011;9297;47.258;11.362;2024-03-23T23:52:14;2.30;;;2.20;;
5604;SDS011;9297;47.258;11.362;2024-03-23T23:54:41;2.57;;;2.33;;
5604;SDS011;9297;47.258;11.362;2024-03-23T23:57:07;2.87;;;2.67;;
5604;SDS011;9297;47.258;11.362;2024-03-23T23:59:34;2.53;;;2.33;;
